Time;durP1;ratioP1;P1;durP2;ratioP2;P2;SDS_P1;SDS_P2;PMS_P1;PMS_P2;Temp;Humidity;BMP_temperature;BMP_pressure;BME280_temperature;BME280_humidity;BME280_pressure;Samples;Min_cycle;Max_cycle;Signal;HPM_P1;HPM_P2
2023/04/02 00:02:22;;;;;;;8.77;4.80;;;5.80;99.90;;;;;;6304384;22;20029;-78
2023/04/02 00:05:24;;;;;;;10.05;5.57;;;5.80;99.90;;;;;;6303955;22;20442;-78
2023/04/02 00:07:52;;;;;;;6.63;5.03;;;5.80;99.90;;;;;;6236078;23;20055;-78
2023/04/02 00:10:27;;;;;;;9.02;4.97;;;5.80;99.90;;;;;;6286994;22;20019;-78
2023/04/02 00:13:37;;;;;;;8.15;5.32;;;5.70;99.90;;;;;;6302888;22;20023;-77
2023/04/02 00:16:07;;;;;;;9.77;5.25;;;5.70;99.90;;;;;;6307102;22;20019;-77
2023/04/02 00:18:34;;;;;;;12.10;5.63;;;5.70;99.90;;;;;;6303951;22;20059;-77
2023/04/02 00:21:06;;;;;;;11.35;5.40;;;5.70;99.90;;;;;;6332070;22;20362;-77
2023/04/02 00:23:34;;;;;;;8.25;5.30;;;5.70;99.90;;;;;;6304108;22;20026;-77
2023/04/02 00:26:00;;;;;;;7.68;5.28;;;5.70;99.90;;;;;;6333894;22;20022;-78
2023/04/02 00:28:26;;;;;;;8.65;4.82;;;5.70;99.90;;;;;;6333389;22;20509;-78
2023/04/02 00:30:55;;;;;;;8.90;5.40;;;5.70;99.90;;;;;;6305362;22;20054;-77
2023/04/02 00:33:24;;;;;;;12.05;5.55;;;5.70;99.90;;;;;;6333142;22;20023;-78
2023/04/02 00:35:52;;;;;;;9.60;5.93;;;5.70;99.90;;;;;;6333597;22;20027;-77
2023/04/02 00:38:30;;;;;;;8.90;5.10;;;5.60;99.90;;;;;;6305431;22;20015;-77
2023/04/02 00:41:00;;;;;;;9.43;5.57;;;5.60;99.90;;;;;;6359182;22;20027;-78
2023/04/02 00:43:30;;;;;;;8.88;5.75;;;5.60;99.90;;;;;;6365503;22;20174;-78
2023/04/02 00:46:02;;;;;;;7.47;5.65;;;5.60;99.90;;;;;;6364600;22;20023;-78
2023/04/02 00:48:31;;;;;;;8.55;5.57;;;5.60;99.90;;;;;;6336939;22;20015;-78
2023/04/02 00:51:11;;;;;;;6.65;5.18;;;5.60;99.90;;;;;;6336623;22;20068;-77
2023/04/02 00:53:39;;;;;;;7.72;5.63;;;5.50;99.90;;;;;;6336391;22;20631;-77
2023/04/02 00:56:15;;;;;;;9.70;5.30;;;5.50;99.90;;;;;;6335783;22;20019;-77
2023/04/02 00:58:42;;;;;;;8.88;5.32;;;5.40;99.90;;;;;;6336595;22;20010;-79
2023/04/02 01:01:21;;;;;;;9.18;6.05;;;5.40;99.90;;;;;;6364994;22;20379;-78
2023/04/02 01:04:00;;;;;;;9.43;5.32;;;5.30;99.90;;;;;;6336175;22;20099;-78
2023/04/02 01:06:33;;;;;;;6.35;5.22;;;5.30;99.90;;;;;;6336327;22;20018;-77
2023/04/02 01:09:41;;;;;;;12.27;6.00;;;5.30;99.90;;;;;;6337110;22;20344;-77
2023/04/02 01:12:19;;;;;;;9.98;5.82;;;5.20;99.90;;;;;;6336678;22;20054;-77
2023/04/02 01:14:54;;;;;;;10.85;5.28;;;5.20;99.90;;;;;;6336547;22;20742;-77
2023/04/02 01:17:31;;;;;;;10.80;6.32;;;5.30;99.90;;;;;;6336489;22;20050;-78
2023/04/02 01:20:14;;;;;;;7.75;5.22;;;5.30;99.90;;;;;;6365602;22;20322;-78
2023/04/02 01:23:06;;;;;;;10.65;5.38;;;5.30;99.90;;;;;;6336355;22;20022;-78
2023/04/02 01:25:51;;;;;;;7.07;4.87;;;5.20;99.90;;;;;;6364743;22;20123;-78
2023/04/02 01:28:26;;;;;;;10.43;4.85;;;5.10;99.90;;;;;;6336483;22;20045;-79
2023/04/02 01:30:54;;;;;;;7.13;4.50;;;5.00;99.90;;;;;;6336537;22;20034;-78
2023/04/02 01:33:31;;;;;;;7.50;4.45;;;5.10;99.90;;;;;;6336043;22;20404;-78
2023/04/02 01:36:12;;;;;;;7.93;4.07;;;5.00;99.90;;;;;;6364560;22;20027;-78
2023/04/02 01:38:49;;;;;;;7.78;4.80;;;4.90;99.90;;;;;;6364822;22;20082;-78
2023/04/02 01:41:35;;;;;;;8.50;4.20;;;5.00;99.90;;;;;;6335695;22;20432;-78
2023/04/02 01:44:06;;;;;;;5.75;3.70;;;4.80;99.90;;;;;;6364504;22;20406;-79
2023/04/02 01:46:34;;;;;;;8.87;4.73;;;4.90;99.90;;;;;;6364908;22;20021;-78
2023/04/02 01:49:08;;;;;;;6.20;4.10;;;4.80;99.90;;;;;;6364801;22;20090;-78
2023/04/02 01:51:38;;;;;;;6.18;3.67;;;4.70;99.90;;;;;;6364065;22;20021;-78
2023/04/02 01:54:05;;;;;;;3.47;3.15;;;4.70;99.90;;;;;;6336052;22;20023;-79
2023/04/02 01:56:31;;;;;;;8.75;4.15;;;4.70;99.90;;;;;;6364330;22;20022;-79
2023/04/02 01:59:01;;;;;;;8.32;3.53;;;4.60;99.90;;;;;;6336196;22;20090;-79
2023/04/02 02:01:38;;;;;;;5.88;3.08;;;4.60;99.90;;;;;;6364530;22;20059;-78
2023/04/02 02:04:04;;;;;;;6.57;3.95;;;4.50;99.90;;;;;;6336189;22;20410;-79
2023/04/02 02:06:30;;;;;;;5.30;3.42;;;4.40;99.90;;;;;;6363289;22;20129;-78
2023/04/02 02:09:02;;;;;;;3.10;2.67;;;4.40;99.90;;;;;;6364523;22;20026;-77
2023/04/02 02:11:30;;;;;;;5.28;3.00;;;4.40;99.90;;;;;;6364668;22;20002;-78
2023/04/02 02:14:00;;;;;;;6.95;3.50;;;4.30;99.90;;;;;;6364420;22;20018;-78
2023/04/02 02:16:28;;;;;;;5.47;2.97;;;4.30;99.90;;;;;;6363964;22;20018;-79
2023/04/02 02:18:59;;;;;;;4.93;2.35;;;4.20;99.90;;;;;;6364102;22;20046;-79
2023/04/02 02:21:47;;;;;;;4.65;2.78;;;4.20;99.90;;;;;;6364506;22;20125;-78
2023/04/02 02:24:27;;;;;;;6.45;2.50;;;4.20;99.90;;;;;;6365188;22;20023;-78
2023/04/02 02:27:23;;;;;;;5.00;4.32;;;4.20;99.90;;;;;;6335978;22;20041;-77
2023/04/02 02:29:57;;;;;;;4.45;2.63;;;4.20;99.90;;;;;;6309940;22;20071;-78
2023/04/02 02:32:27;;;;;;;5.57;2.65;;;4.30;99.90;;;;;;6336859;22;20392;-78
2023/04/02 02:35:18;;;;;;;5.10;2.45;;;4.20;99.90;;;;;;6364627;22;20014;-79
2023/04/02 02:37:47;;;;;;;6.50;2.67;;;4.00;99.90;;;;;;6336326;22;20033;-79
2023/04/02 02:40:22;;;;;;;5.65;2.67;;;4.00;99.90;;;;;;6335830;22;20022;-78
2023/04/02 02:42:56;;;;;;;5.50;2.53;;;3.90;99.90;;;;;;6336156;22;20010;-78
2023/04/02 02:45:25;;;;;;;6.00;1.98;;;3.80;99.90;;;;;;6335483;22;20074;-78
2023/04/02 02:47:52;;;;;;;6.38;2.33;;;3.90;99.90;;;;;;6335724;22;20050;-77
2023/04/02 02:50:30;;;;;;;4.20;2.75;;;3.80;99.90;;;;;;6335724;22;20345;-77
2023/04/02 02:53:04;;;;;;;4.45;2.63;;;3.90;99.90;;;;;;6310033;22;20022;-77
2023/04/02 02:55:35;;;;;;;3.33;2.40;;;3.90;99.90;;;;;;6335906;22;20032;-77
2023/04/02 02:58:30;;;;;;;5.03;2.40;;;3.90;99.90;;;;;;6335911;22;20022;-78
2023/04/02 03:00:56;;;;;;;5.07;2.80;;;3.70;99.90;;;;;;6361011;22;20018;-78
2023/04/02 03:03:32;;;;;;;4.95;2.78;;;3.70;99.90;;;;;;6363836;22;20014;-78
2023/04/02 03:06:09;;;;;;;6.72;2.65;;;3.70;99.90;;;;;;6335640;22;20015;-78
2023/04/02 03:08:45;;;;;;;4.65;2.88;;;3.50;99.90;;;;;;6335201;22;20170;-77
2023/04/02 03:11:22;;;;;;;6.50;3.10;;;3.50;99.90;;;;;;6335246;22;20091;-78
2023/04/02 03:13:50;;;;;;;7.03;2.65;;;3.50;99.90;;;;;;6363683;22;20097;-79
2023/04/02 03:16:30;;;;;;;7.05;3.85;;;3.50;99.90;;;;;;6363371;22;20015;-78
2023/04/02 03:19:16;;;;;;;6.50;3.13;;;3.50;99.90;;;;;;6335115;22;20022;-78
2023/04/02 03:21:52;;;;;;;4.53;2.70;;;3.50;99.90;;;;;;6335193;22;20460;-78
2023/04/02 03:24:41;;;;;;;5.43;3.28;;;3.50;99.90;;;;;;6363494;22;20021;-78
2023/04/02 03:27:39;;;;;;;5.97;3.15;;;3.50;99.90;;;;;;6335296;22;20022;-78
2023/04/02 03:30:29;;;;;;;4.75;3.22;;;3.50;99.90;;;;;;6317244;22;20550;-79
2023/04/02 03:33:02;;;;;;;8.15;3.38;;;3.50;99.90;;;;;;6335145;22;20026;-79
2023/04/02 03:35:40;;;;;;;3.95;3.03;;;3.50;99.90;;;;;;6363731;22;20303;-79
2023/04/02 03:38:11;;;;;;;8.95;3.50;;;3.40;99.90;;;;;;6363574;22;20021;-79
2023/04/02 03:40:42;;;;;;;5.60;3.25;;;3.20;99.90;;;;;;6335191;22;20449;-79
2023/04/02 03:43:19;;;;;;;3.17;2.88;;;3.30;99.90;;;;;;6335407;22;20050;-79
2023/04/02 03:45:50;;;;;;;5.18;3.85;;;3.30;99.90;;;;;;6334704;22;20412;-79
2023/04/02 03:48:26;;;;;;;4.28;2.92;;;3.30;99.90;;;;;;6363451;22;20042;-79
2023/04/02 03:51:17;;;;;;;3.55;2.95;;;3.10;99.90;;;;;;6363497;22;20060;-79
2023/04/02 03:53:44;;;;;;;6.40;3.17;;;3.20;99.90;;;;;;6334911;22;20018;-79
2023/04/02 03:56:26;;;;;;;4.93;3.22;;;3.10;99.90;;;;;;6335255;22;20585;-79
2023/04/02 03:59:05;;;;;;;7.43;3.17;;;3.20;99.90;;;;;;6337457;22;20025;-80
2023/04/02 04:01:47;;;;;;;7.75;3.63;;;3.00;99.90;;;;;;6336381;22;20090;-79
2023/04/02 04:04:16;;;;;;;7.68;3.60;;;3.10;99.90;;;;;;6337191;22;20022;-80
2023/04/02 04:06:45;;;;;;;5.00;2.90;;;3.20;99.90;;;;;;6337391;22;20071;-80
2023/04/02 04:09:29;;;;;;;6.03;3.38;;;3.20;99.90;;;;;;6337573;22;20520;-80
2023/04/02 04:12:27;;;;;;;16.17;4.07;;;3.20;99.90;;;;;;6337757;22;20567;-79
2023/04/02 04:15:20;;;;;;;6.57;3.65;;;3.20;99.90;;;;;;6333034;22;20318;-79
2023/04/02 04:18:01;;;;;;;7.93;3.13;;;3.20;99.90;;;;;;6337425;22;20014;-79
2023/04/02 04:20:40;;;;;;;8.18;3.50;;;3.10;99.90;;;;;;6311306;22;20025;-80
2023/04/02 04:23:24;;;;;;;4.28;3.33;;;3.10;99.90;;;;;;6365501;22;20418;-80
2023/04/02 04:26:08;;;;;;;7.38;3.17;;;3.10;99.90;;;;;;6337072;22;20070;-80
2023/04/02 04:28:58;;;;;;;7.03;3.28;;;3.10;99.90;;;;;;6337137;22;20018;-80
2023/04/02 04:31:45;;;;;;;5.18;2.58;;;3.00;99.90;;;;;;6336919;22;20015;-81
2023/04/02 04:34:16;;;;;;;7.55;3.30;;;3.00;99.90;;;;;;6336800;22;20026;-79
2023/04/02 04:36:52;;;;;;;6.57;3.03;;;3.10;99.90;;;;;;6365698;22;20041;-79
2023/04/02 04:39:28;;;;;;;5.50;3.20;;;3.10;99.90;;;;;;6365494;22;20214;-78
2023/04/02 04:41:57;;;;;;;5.40;3.35;;;3.10;99.90;;;;;;6336471;22;20022;-78
2023/04/02 04:44:41;;;;;;;3.83;2.65;;;3.20;99.90;;;;;;6364518;22;20014;-76
2023/04/02 04:47:18;;;;;;;6.35;3.85;;;3.10;99.90;;;;;;6336611;22;20019;-78
2023/04/02 04:49:52;;;;;;;9.07;2.97;;;3.00;99.90;;;;;;6337056;22;20404;-78
2023/04/02 04:52:24;;;;;;;6.35;3.50;;;3.00;99.90;;;;;;6336817;22;20091;-77
2023/04/02 04:54:51;;;;;;;4.85;3.25;;;3.00;99.90;;;;;;6336492;22;20030;-77
2023/04/02 04:57:35;;;;;;;5.93;2.92;;;3.00;99.90;;;;;;6336682;22;20116;-79
2023/04/02 05:00:14;;;;;;;7.90;3.03;;;3.00;99.90;;;;;;6365215;22;20037;-79
2023/04/02 05:02:47;;;;;;;6.45;2.80;;;3.10;99.90;;;;;;6365183;22;20133;-78
2023/04/02 05:05:28;;;;;;;5.15;3.00;;;3.00;99.90;;;;;;6336468;22;20018;-76
2023/04/02 05:08:40;;;;;;;5.82;3.55;;;3.00;99.90;;;;;;6336844;22;20445;-78
2023/04/02 05:11:13;;;;;;;4.90;3.08;;;3.00;99.90;;;;;;6284458;22;20029;-78
2023/04/02 05:13:56;;;;;;;8.05;4.05;;;2.90;99.90;;;;;;6336185;22;20098;-78
2023/04/02 05:16:33;;;;;;;9.05;4.03;;;2.90;99.90;;;;;;6336499;22;20499;-79
2023/04/02 05:19:20;;;;;;;4.93;3.28;;;2.90;99.90;;;;;;6336158;22;20295;-79
2023/04/02 05:21:52;;;;;;;9.25;4.00;;;2.90;99.90;;;;;;6336276;22;20037;-79
2023/04/02 05:25:08;;;;;;;6.72;3.65;;;2.90;99.90;;;;;;6336475;22;20083;-79
2023/04/02 05:27:46;;;;;;;7.60;3.67;;;2.80;99.90;;;;;;6267361;22;20021;-80
2023/04/02 05:30:31;;;;;;;6.28;3.65;;;2.70;99.90;;;;;;6267395;22;20179;-78
2023/04/02 05:33:03;;;;;;;7.35;4.00;;;2.70;99.90;;;;;;6341170;22;20090;-79
2023/04/02 05:35:35;;;;;;;6.05;3.65;;;2.70;99.90;;;;;;6364739;22;20037;-80
2023/04/02 05:38:01;;;;;;;7.07;3.60;;;2.70;99.90;;;;;;6336133;22;20010;-80
2023/04/02 05:40:37;;;;;;;8.20;3.35;;;2.80;99.90;;;;;;6364380;22;20033;-80
2023/04/02 05:43:08;;;;;;;7.80;4.07;;;2.70;99.90;;;;;;6364175;22;20467;-79
2023/04/02 05:45:37;;;;;;;10.80;4.35;;;2.80;99.90;;;;;;6336352;22;20402;-79
2023/04/02 05:48:18;;;;;;;6.60;3.83;;;2.80;99.90;;;;;;6364807;22;20441;-79
2023/04/02 05:50:51;;;;;;;7.70;3.63;;;2.90;99.90;;;;;;6364626;22;20029;-80
2023/04/02 05:53:32;;;;;;;4.43;2.88;;;2.90;99.90;;;;;;6335860;22;20021;-80
2023/04/02 05:56:20;;;;;;;4.95;3.45;;;2.80;99.90;;;;;;6336239;22;20022;-81
2023/04/02 05:58:59;;;;;;;5.43;2.88;;;2.80;99.90;;;;;;6335108;22;20018;-81
2023/04/02 06:01:32;;;;;;;4.63;2.30;;;2.80;99.90;;;;;;6364478;22;20420;-80
2023/04/02 06:04:31;;;;;;;6.57;2.33;;;2.90;99.90;;;;;;6364392;22;20025;-80
2023/04/02 06:07:10;;;;;;;5.53;2.70;;;2.90;99.90;;;;;;6336236;22;20014;-79
2023/04/02 06:09:38;;;;;;;4.53;2.58;;;2.90;99.90;;;;;;6336194;22;20022;-79
2023/04/02 06:12:22;;;;;;;4.38;2.90;;;2.90;99.90;;;;;;6336021;22;20022;-79
2023/04/02 06:14:48;;;;;;;7.82;2.40;;;2.90;99.90;;;;;;6364900;22;20026;-80
2023/04/02 06:17:16;;;;;;;4.20;2.08;;;3.00;99.90;;;;;;6336481;22;20018;-78
2023/04/02 06:19:42;;;;;;;5.65;2.28;;;3.10;99.90;;;;;;6336262;22;20030;-78
2023/04/02 06:22:25;;;;;;;7.78;2.30;;;3.00;99.90;;;;;;6335890;22;20129;-79
2023/04/02 06:24:59;;;;;;;8.15;2.33;;;3.00;99.90;;;;;;6336426;22;20705;-80
2023/04/02 06:27:26;;;;;;;5.97;2.60;;;3.00;99.90;;;;;;6335916;22;20343;-79
2023/04/02 06:29:58;;;;;;;3.58;2.40;;;3.10;99.90;;;;;;6335953;22;20164;-79
2023/04/02 06:32:27;;;;;;;4.88;2.35;;;3.10;99.90;;;;;;6335839;22;20020;-82
2023/04/02 06:34:53;;;;;;;6.55;2.38;;;3.10;99.90;;;;;;6335602;22;20020;-79
2023/04/02 06:37:30;;;;;;;6.85;2.45;;;3.10;99.90;;;;;;6363958;22;20091;-79
2023/04/02 06:39:57;;;;;;;5.88;2.33;;;3.20;99.90;;;;;;6363527;22;20528;-78
2023/04/02 06:42:27;;;;;;;6.93;2.88;;;3.10;99.90;;;;;;6335608;22;20094;-79
2023/04/02 06:44:53;;;;;;;4.55;2.78;;;3.20;99.90;;;;;;6335213;22;20124;-78
2023/04/02 06:47:36;;;;;;;8.60;2.40;;;3.20;99.90;;;;;;6364208;22;20056;-68
2023/04/02 06:50:15;;;;;;;6.05;3.00;;;3.10;99.90;;;;;;6363979;22;20014;-77
2023/04/02 06:52:51;;;;;;;3.85;2.10;;;3.20;99.90;;;;;;6335418;22;20271;-78
2023/04/02 06:55:20;;;;;;;5.95;2.08;;;3.20;99.90;;;;;;6335293;22;20080;-78
2023/04/02 06:57:47;;;;;;;5.75;2.00;;;3.20;99.90;;;;;;6335016;22;20018;-77
2023/04/02 07:00:35;;;;;;;4.93;2.53;;;3.20;99.90;;;;;;6363230;22;20002;-78
2023/04/02 07:03:06;;;;;;;2.42;1.90;;;3.30;99.90;;;;;;6335432;22;20719;-76
2023/04/02 07:05:32;;;;;;;7.32;2.38;;;3.30;99.90;;;;;;6363497;22;20022;-77
2023/04/02 07:07:57;;;;;;;9.05;1.98;;;3.30;99.90;;;;;;6335594;22;20045;-77
2023/04/02 07:10:23;;;;;;;4.57;1.67;;;3.30;99.90;;;;;;6363637;22;20018;-76
2023/04/02 07:12:49;;;;;;;4.93;2.20;;;3.40;99.90;;;;;;6335301;22;20322;-77
2023/04/02 07:15:15;;;;;;;5.15;2.50;;;3.30;99.90;;;;;;6363714;22;20107;-73
2023/04/02 07:17:42;;;;;;;4.68;2.10;;;3.40;99.90;;;;;;6363344;22;20014;-77
2023/04/02 07:20:30;;;;;;;5.13;2.00;;;3.50;99.90;;;;;;6368518;22;20022;-77
2023/04/02 07:22:56;;;;;;;3.53;2.08;;;3.50;99.90;;;;;;6370070;22;20491;-78
2023/04/02 07:25:24;;;;;;;3.72;2.25;;;3.40;99.90;;;;;;6341621;22;20022;-78
2023/04/02 07:27:50;;;;;;;4.55;2.33;;;3.50;99.90;;;;;;6368032;22;20473;-76
2023/04/02 07:30:17;;;;;;;3.35;2.15;;;3.60;99.90;;;;;;6334828;22;20018;-77
2023/04/02 07:32:43;;;;;;;5.93;2.30;;;3.60;99.90;;;;;;6363231;22;20093;-78
2023/04/02 07:35:09;;;;;;;6.88;2.13;;;3.50;99.90;;;;;;6362482;22;20144;-77
2023/04/02 07:37:36;;;;;;;3.35;2.20;;;3.60;99.90;;;;;;6363449;22;20021;-78
2023/04/02 07:40:02;;;;;;;6.70;2.47;;;3.70;99.90;;;;;;6334451;22;20103;-78
2023/04/02 07:42:28;;;;;;;5.88;2.13;;;3.70;99.90;;;;;;6363656;22;20015;-78
2023/04/02 07:44:54;;;;;;;7.85;3.55;;;3.70;99.90;;;;;;6362821;22;20094;-79
2023/04/02 07:47:20;;;;;;;5.70;2.42;;;3.90;99.90;;;;;;6363493;22;20019;-77
2023/04/02 07:49:45;;;;;;;5.28;2.22;;;3.90;99.90;;;;;;6363195;22;20138;-77
2023/04/02 07:52:11;;;;;;;4.93;2.33;;;3.90;99.90;;;;;;6334775;22;20014;-77
2023/04/02 07:54:38;;;;;;;7.05;2.55;;;4.00;99.90;;;;;;6334613;22;20159;-76
2023/04/02 07:57:04;;;;;;;5.35;2.15;;;4.00;99.90;;;;;;6335058;22;20297;-77
2023/04/02 07:59:30;;;;;;;5.13;2.22;;;3.90;99.90;;;;;;6335198;22;20026;-76
2023/04/02 08:01:56;;;;;;;4.78;2.22;;;4.00;99.90;;;;;;6335113;22;20089;-75
2023/04/02 08:04:22;;;;;;;3.13;1.80;;;4.10;99.90;;;;;;6334847;22;20029;-74
2023/04/02 08:06:49;;;;;;;5.72;2.20;;;4.20;99.90;;;;;;6334931;22;20030;-76
2023/04/02 08:09:16;;;;;;;2.90;2.00;;;4.10;99.90;;;;;;6334023;22;20022;-77
2023/04/02 08:11:41;;;;;;;4.88;2.10;;;4.00;99.90;;;;;;6334723;22;20022;-77
2023/04/02 08:14:10;;;;;;;6.70;3.03;;;3.90;99.90;;;;;;6362641;22;20014;-78
2023/04/02 08:16:49;;;;;;;5.47;2.28;;;3.90;99.90;;;;;;6334407;22;20475;-77
2023/04/02 08:19:15;;;;;;;5.20;2.83;;;4.00;99.90;;;;;;6362435;22;20025;-76
2023/04/02 08:21:41;;;;;;;6.40;2.03;;;4.10;99.90;;;;;;6334046;22;20021;-77
2023/04/02 08:24:07;;;;;;;5.15;2.33;;;4.20;99.90;;;;;;6362793;22;20522;-77
2023/04/02 08:26:33;;;;;;;3.58;2.30;;;4.20;99.90;;;;;;6334337;22;20093;-78
2023/04/02 08:28:58;;;;;;;6.95;3.08;;;4.20;99.90;;;;;;6333708;22;20357;-77
2023/04/02 08:31:24;;;;;;;2.65;2.30;;;4.20;99.90;;;;;;6334766;22;20026;-76
2023/04/02 08:33:50;;;;;;;3.38;2.75;;;4.40;99.90;;;;;;6334869;22;20357;-76
2023/04/02 08:36:17;;;;;;;6.65;2.33;;;4.40;99.90;;;;;;6363575;22;20018;-77
2023/04/02 08:38:42;;;;;;;6.50;2.45;;;4.60;99.90;;;;;;6362959;22;20014;-77
2023/04/02 08:41:22;;;;;;;3.28;2.78;;;4.70;99.90;;;;;;6308003;22;20022;-78
2023/04/02 08:43:59;;;;;;;5.43;2.40;;;4.70;99.90;;;;;;6363559;22;20029;-77
2023/04/02 08:46:39;;;;;;;3.92;2.35;;;4.60;99.90;;;;;;6364583;22;20761;-77
2023/04/02 08:49:13;;;;;;;3.03;2.05;;;4.60;99.90;;;;;;6366088;22;20014;-71
2023/04/02 08:51:39;;;;;;;5.15;2.58;;;4.40;99.90;;;;;;6366619;22;20089;-76
2023/04/02 08:54:20;;;;;;;2.72;2.53;;;4.70;99.90;;;;;;6365986;22;20025;-77
2023/04/02 08:57:01;;;;;;;6.47;2.17;;;4.60;99.90;;;;;;6337601;22;20019;-77
2023/04/02 08:59:30;;;;;;;7.88;2.70;;;4.60;99.90;;;;;;6366481;22;20023;-77
2023/04/02 09:02:05;;;;;;;6.22;2.42;;;4.60;99.90;;;;;;6337821;22;20357;-77
2023/04/02 09:04:32;;;;;;;4.55;2.47;;;4.70;99.90;;;;;;6366395;22;20117;-78
2023/04/02 09:06:59;;;;;;;6.70;2.60;;;4.70;99.90;;;;;;6365889;22;20147;-77
2023/04/02 09:09:26;;;;;;;3.42;2.00;;;4.70;99.90;;;;;;6337521;22;20028;-79
2023/04/02 09:11:53;;;;;;;7.05;2.53;;;4.80;99.90;;;;;;6337558;22;20333;-78
2023/04/02 09:14:49;;;;;;;5.25;2.38;;;4.90;99.90;;;;;;6337434;22;20385;-78
2023/04/02 09:17:23;;;;;;;3.60;2.05;;;5.00;99.90;;;;;;6365795;22;20333;-78
2023/04/02 09:19:57;;;;;;;2.13;1.90;;;5.00;99.90;;;;;;6366327;22;20014;-78
2023/04/02 09:22:24;;;;;;;4.22;2.25;;;5.20;99.90;;;;;;6366668;22;20010;-78
2023/04/02 09:24:56;;;;;;;2.95;1.80;;;5.20;99.90;;;;;;6366129;22;20449;-78
2023/04/02 09:27:28;;;;;;;11.00;2.75;;;5.10;99.90;;;;;;6365283;22;20022;-79
2023/04/02 09:30:28;;;;;;;3.20;2.35;;;5.20;99.90;;;;;;6337280;22;20014;-78
2023/04/02 09:32:57;;;;;;;4.18;2.10;;;5.40;99.90;;;;;;6365125;22;20021;-77
2023/04/02 09:35:28;;;;;;;6.18;2.53;;;5.50;99.90;;;;;;6365207;22;20024;-78
2023/04/02 09:38:06;;;;;;;5.47;2.20;;;5.60;99.90;;;;;;6365789;22;20018;-78
2023/04/02 09:40:54;;;;;;;8.48;2.25;;;5.60;99.90;;;;;;6365851;22;20486;-78
2023/04/02 09:43:24;;;;;;;3.90;1.95;;;5.60;99.90;;;;;;6348658;22;20102;-79
2023/04/02 09:46:11;;;;;;;3.83;2.30;;;5.70;99.90;;;;;;6337127;22;20029;-79
2023/04/02 09:48:42;;;;;;;3.05;1.92;;;5.70;99.90;;;;;;6365377;22;20620;-78
2023/04/02 09:51:12;;;;;;;2.53;1.95;;;5.80;99.90;;;;;;6337602;22;20022;-79
2023/04/02 09:54:03;;;;;;;3.67;2.30;;;5.90;99.90;;;;;;6365850;22;20019;-78
2023/04/02 09:56:29;;;;;;;7.22;2.15;;;6.00;99.90;;;;;;6352514;22;20050;-77
2023/04/02 09:59:14;;;;;;;2.67;1.73;;;6.10;99.90;;;;;;6337651;22;20027;-78
2023/04/02 10:01:55;;;;;;;5.75;2.00;;;6.00;99.90;;;;;;6336810;22;20018;-77
2023/04/02 10:04:43;;;;;;;4.15;1.60;;;6.10;99.90;;;;;;6337121;22;20198;-76
2023/04/02 10:07:28;;;;;;;6.88;1.90;;;6.20;99.90;;;;;;6365387;22;20444;-77
2023/04/02 10:10:00;;;;;;;5.10;2.30;;;6.20;99.90;;;;;;6335835;22;20022;-75
2023/04/02 10:12:26;;;;;;;4.38;2.08;;;6.30;99.90;;;;;;6364012;22;20103;-75
2023/04/02 10:14:54;;;;;;;8.30;2.55;;;6.40;99.90;;;;;;6335846;22;20025;-76
2023/04/02 10:17:29;;;;;;;7.57;2.03;;;6.40;99.90;;;;;;6365003;22;20118;-78
2023/04/02 10:19:59;;;;;;;4.43;2.00;;;6.40;99.90;;;;;;6336401;22;20026;-78
2023/04/02 10:22:27;;;;;;;4.53;2.17;;;6.60;99.90;;;;;;6365230;22;20341;-78
2023/04/02 10:24:53;;;;;;;4.75;1.98;;;6.60;99.90;;;;;;6365107;22;20110;-78
2023/04/02 10:27:44;;;;;;;3.42;2.15;;;6.60;99.90;;;;;;6336712;22;20022;-78
2023/04/02 10:30:38;;;;;;;2.92;2.00;;;6.60;99.90;;;;;;6336838;22;20033;-76
2023/04/02 10:33:24;;;;;;;3.25;1.75;;;6.50;99.90;;;;;;6363681;22;20018;-75
2023/04/02 10:36:29;;;;;;;5.30;2.30;;;6.80;99.90;;;;;;6364059;22;20018;-78
2023/04/02 10:39:19;;;;;;;6.13;2.03;;;6.80;99.90;;;;;;6336117;22;20033;-78
2023/04/02 10:41:51;;;;;;;2.33;1.90;;;6.80;99.90;;;;;;6331131;22;20049;-77
2023/04/02 10:44:41;;;;;;;3.03;1.80;;;6.90;99.90;;;;;;6330988;22;20023;-78
2023/04/02 10:47:41;;;;;;;6.38;1.88;;;6.80;99.90;;;;;;6304320;22;20025;-78
2023/04/02 10:50:31;;;;;;;3.88;1.48;;;6.90;99.90;;;;;;6332898;22;20337;-79
2023/04/02 10:53:02;;;;;;;6.25;2.20;;;6.90;99.90;;;;;;6332531;22;20489;-80
2023/04/02 10:55:32;;;;;;;4.25;1.85;;;7.00;99.90;;;;;;6304495;22;20034;-77
2023/04/02 10:58:04;;;;;;;5.72;1.85;;;6.90;99.90;;;;;;6330271;22;20029;-79
2023/04/02 11:00:33;;;;;;;;;;;7.20;99.90;;;;;;6306820;22;20042;-78
2023/04/02 11:03:11;;;;;;;5.38;1.83;;;7.10;99.90;;;;;;6332768;22;19910;-79
2023/04/02 11:06:09;;;;;;;6.25;1.80;;;7.30;99.90;;;;;;6333382;22;20022;-78
2023/04/02 11:08:41;;;;;;;2.00;1.80;;;7.20;99.90;;;;;;6333025;22;20022;-78
2023/04/02 11:11:23;;;;;;;3.20;1.73;;;7.20;99.90;;;;;;6331386;22;20061;-78
2023/04/02 11:14:00;;;;;;;2.17;1.88;;;7.20;99.90;;;;;;6333177;22;20409;-78
2023/04/02 11:16:26;;;;;;;2.90;1.70;;;7.30;99.90;;;;;;6332982;22;20037;-78
2023/04/02 11:19:17;;;;;;;4.15;2.20;;;7.30;99.90;;;;;;6333117;22;20015;-78
2023/04/02 11:21:54;;;;;;;3.90;2.45;;;7.40;99.90;;;;;;6331180;22;20405;-78
2023/04/02 11:24:31;;;;;;;3.78;1.88;;;7.40;99.90;;;;;;6331421;22;20795;-78
2023/04/02 11:27:10;;;;;;;7.07;1.98;;;7.30;99.90;;;;;;6331302;22;20106;-78
2023/04/02 11:29:40;;;;;;;4.65;1.90;;;7.40;99.90;;;;;;6331017;22;20029;-78
2023/04/02 11:32:22;;;;;;;7.25;1.92;;;7.40;99.90;;;;;;6330860;22;20022;-78
2023/04/02 11:34:48;;;;;;;3.90;1.87;;;7.60;99.90;;;;;;6331064;22;20415;-77
2023/04/02 11:37:34;;;;;;;1.60;1.50;;;7.70;99.90;;;;;;6330767;22;20031;-79
2023/04/02 11:40:43;;;;;;;5.47;2.42;;;7.70;99.90;;;;;;6336539;22;20033;-75
2023/04/02 11:43:36;;;;;;;2.42;1.90;;;7.80;99.90;;;;;;6311599;22;20022;-72
2023/04/02 11:46:04;;;;;;;4.57;1.60;;;7.70;99.90;;;;;;6363572;22;20086;-78
2023/04/02 11:48:35;;;;;;;2.35;1.90;;;7.70;99.90;;;;;;6336354;22;20279;-81
2023/04/02 11:51:21;;;;;;;2.80;1.80;;;7.80;99.90;;;;;;6336483;22;20466;-80
2023/04/02 11:53:53;;;;;;;1.90;1.70;;;7.90;99.90;;;;;;6336050;22;20011;-79
2023/04/02 11:56:38;;;;;;;2.90;1.63;;;7.80;99.90;;;;;;6364219;22;20040;-74
2023/04/02 11:59:38;;;;;;;3.92;1.98;;;8.00;99.90;;;;;;6363781;22;20023;-73
2023/04/02 12:02:31;;;;;;;2.85;1.67;;;7.90;99.90;;;;;;6363804;22;20018;-74
2023/04/02 12:05:28;;;;;;;3.63;1.83;;;8.00;99.90;;;;;;6363869;22;20640;-74
2023/04/02 12:08:13;;;;;;;3.67;1.42;;;8.10;99.90;;;;;;6363834;22;20015;-74
2023/04/02 12:10:58;;;;;;;2.55;1.70;;;8.00;99.90;;;;;;6363817;22;20628;-74
2023/04/02 12:13:39;;;;;;;3.75;1.60;;;8.20;99.90;;;;;;6363773;22;20025;-73
2023/04/02 12:16:10;;;;;;;3.22;1.83;;;8.00;99.90;;;;;;6363879;22;20022;-74
2023/04/02 12:18:52;;;;;;;4.57;2.03;;;8.20;99.90;;;;;;6364310;22;20014;-74
2023/04/02 12:21:20;;;;;;;4.50;1.70;;;8.20;99.90;;;;;;6337709;22;20018;-74
2023/04/02 12:23:47;;;;;;;3.00;1.73;;;8.20;99.90;;;;;;6337952;22;20022;-73
2023/04/02 12:26:45;;;;;;;3.70;2.17;;;8.30;99.90;;;;;;6337811;22;20041;-73
2023/04/02 12:29:23;;;;;;;4.18;1.75;;;8.30;99.90;;;;;;6346958;22;20105;-72
2023/04/02 12:31:50;;;;;;;4.43;1.40;;;8.30;99.90;;;;;;6366070;22;20014;-74
2023/04/02 12:34:18;;;;;;;3.55;1.67;;;8.30;99.90;;;;;;6366098;22;20018;-73
2023/04/02 12:36:52;;;;;;;2.55;1.30;;;8.20;99.90;;;;;;6366396;22;20333;-74
2023/04/02 12:39:17;;;;;;;3.80;1.52;;;8.30;99.90;;;;;;6337973;22;20014;-74
2023/04/02 12:41:43;;;;;;;1.30;1.20;;;8.30;99.90;;;;;;6365834;22;20026;-73
2023/04/02 12:44:23;;;;;;;2.70;1.70;;;8.30;99.90;;;;;;6365706;22;20022;-73
2023/04/02 12:46:51;;;;;;;2.08;1.60;;;8.30;99.90;;;;;;6338431;22;20374;-74
2023/04/02 12:49:32;;;;;;;3.58;1.60;;;8.40;99.90;;;;;;6366132;22;20022;-74
2023/04/02 12:52:00;;;;;;;3.85;1.65;;;8.50;99.90;;;;;;6366208;22;20033;-74
2023/04/02 12:54:27;;;;;;;3.28;1.70;;;8.50;99.90;;;;;;6365791;22;20113;-75
2023/04/02 12:56:52;;;;;;;3.78;1.65;;;8.60;99.90;;;;;;6365502;22;20471;-76
2023/04/02 12:59:35;;;;;;;3.65;1.83;;;8.70;99.90;;;;;;6365381;22;20022;-75
2023/04/02 13:02:15;;;;;;;3.20;1.75;;;8.70;99.90;;;;;;6366266;22;20019;-75
2023/04/02 13:04:59;;;;;;;8.82;2.42;;;8.80;99.90;;;;;;6366123;22;20021;-74
2023/04/02 13:07:30;;;;;;;3.85;1.60;;;8.80;99.90;;;;;;6366530;22;20286;-80
2023/04/02 13:10:01;;;;;;;3.90;1.85;;;8.80;99.90;;;;;;6338109;22;20026;-80
2023/04/02 13:12:33;;;;;;;3.20;2.35;;;8.70;99.90;;;;;;6312158;22;20029;-80
2023/04/02 13:15:02;;;;;;;2.00;1.80;;;8.80;99.90;;;;;;6338048;22;20404;-81
2023/04/02 13:17:46;;;;;;;3.13;1.77;;;8.80;99.90;;;;;;6366173;22;20087;-80
2023/04/02 13:20:28;;;;;;;1.58;1.48;;;8.80;99.90;;;;;;6366538;22;20015;-81
2023/04/02 13:22:55;;;;;;;3.10;1.85;;;9.00;99.90;;;;;;6366163;22;20025;-81
2023/04/02 13:25:27;;;;;;;3.65;1.75;;;9.00;99.90;;;;;;6365784;22;20026;-80
2023/04/02 13:27:53;;;;;;;;;;;9.00;99.90;;;;;;6338167;22;20042;-81
2023/04/02 13:30:25;;;;;;;3.47;1.77;;;8.90;99.90;;;;;;6337052;22;19920;-80
2023/04/02 13:32:51;;;;;;;2.50;1.58;;;8.90;99.90;;;;;;6337813;22;20094;-81
2023/04/02 13:35:17;;;;;;;5.00;2.00;;;9.00;99.90;;;;;;6337724;22;20022;-80
2023/04/02 13:37:43;;;;;;;2.53;1.65;;;9.10;99.90;;;;;;6365658;22;20011;-79
2023/04/02 13:40:15;;;;;;;3.63;1.60;;;9.20;99.90;;;;;;6365552;22;20022;-80
2023/04/02 13:42:42;;;;;;;2.20;1.70;;;9.20;99.90;;;;;;6311369;22;20029;-80